sensor_id;sensor_type;location;lat;lon;timestamp;pressure;altitude;pressure_sealevel;temperature
76476;BMP280;65308;50.078;14.854;2023-05-10T00:00:24;98832.16;;;9.16
76476;BMP280;65308;50.078;14.854;2023-05-10T00:02:56;98832.16;;;9.16
76476;BMP280;65308;50.078;14.854;2023-05-10T00:05:23;98833.31;;;9.15
76476;BMP280;65308;50.078;14.854;2023-05-10T00:07:49;98825.09;;;9.10
76476;BMP280;65308;50.078;14.854;2023-05-10T00:10:16;98825.69;;;9.05
76476;BMP280;65308;50.078;14.854;2023-05-10T00:12:42;98828.81;;;8.90
76476;BMP280;65308;50.078;14.854;2023-05-10T00:15:10;98831.50;;;8.90
76476;BMP280;65308;50.078;14.854;2023-05-10T00:17:36;98828.19;;;8.86
76476;BMP280;65308;50.078;14.854;2023-05-10T00:20:05;98821.94;;;8.80
76476;BMP280;65308;50.078;14.854;2023-05-10T00:22:32;98823.81;;;8.92
76476;BMP280;65308;50.078;14.854;2023-05-10T00:24:59;98820.44;;;8.79
76476;BMP280;65308;50.078;14.854;2023-05-10T00:27:26;98828.03;;;8.81
76476;BMP280;65308;50.078;14.854;2023-05-10T00:29:52;98826.69;;;8.85
76476;BMP280;65308;50.078;14.854;2023-05-10T00:32:22;98819.56;;;8.82
76476;BMP280;65308;50.078;14.854;2023-05-10T00:34:49;98816.09;;;8.73
76476;BMP280;65308;50.078;14.854;2023-05-10T00:37:18;98811.44;;;8.86
76476;BMP280;65308;50.078;14.854;2023-05-10T00:39:44;98812.69;;;8.94
76476;BMP280;65308;50.078;14.854;2023-05-10T00:42:11;98806.69;;;8.81
76476;BMP280;65308;50.078;14.854;2023-05-10T00:44:37;98804.09;;;8.77
76476;BMP280;65308;50.078;14.854;2023-05-10T00:47:04;98800.56;;;8.80
76476;BMP280;65308;50.078;14.854;2023-05-10T00:49:32;98805.91;;;8.80
76476;BMP280;65308;50.078;14.854;2023-05-10T00:51:59;98804.34;;;8.92
76476;BMP280;65308;50.078;14.854;2023-05-10T00:54:28;98805.22;;;8.67
76476;BMP280;65308;50.078;14.854;2023-05-10T00:56:55;98805.16;;;8.80
76476;BMP280;65308;50.078;14.854;2023-05-10T00:59:22;98807.16;;;8.88
76476;BMP280;65308;50.078;14.854;2023-05-10T01:01:50;98802.44;;;8.92
76476;BMP280;65308;50.078;14.854;2023-05-10T01:04:17;98800.69;;;8.77
76476;BMP280;65308;50.078;14.854;2023-05-10T01:06:45;98794.75;;;8.73
76476;BMP280;65308;50.078;14.854;2023-05-10T01:09:11;98796.28;;;8.83
76476;BMP280;65308;50.078;14.854;2023-05-10T01:11:40;98791.19;;;8.76
76476;BMP280;65308;50.078;14.854;2023-05-10T01:14:07;98800.69;;;8.77
76476;BMP280;65308;50.078;14.854;2023-05-10T01:16:49;98785.38;;;8.55
76476;BMP280;65308;50.078;14.854;2023-05-10T01:19:19;98796.66;;;8.72
76476;BMP280;65308;50.078;14.854;2023-05-10T01:21:51;98786.91;;;8.78
76476;BMP280;65308;50.078;14.854;2023-05-10T01:24:46;98795.03;;;8.75
76476;BMP280;65308;50.078;14.854;2023-05-10T01:27:29;98782.59;;;8.72
76476;BMP280;65308;50.078;14.854;2023-05-10T01:30:25;98790.03;;;8.77
76476;BMP280;65308;50.078;14.854;2023-05-10T01:32:59;98788.66;;;8.72
76476;BMP280;65308;50.078;14.854;2023-05-10T01:35:32;98784.59;;;8.67
76476;BMP280;65308;50.078;14.854;2023-05-10T01:38:07;98789.41;;;8.73
76476;BMP280;65308;50.078;14.854;2023-05-10T01:40:38;98785.03;;;8.66
76476;BMP280;65308;50.078;14.854;2023-05-10T01:43:12;98784.22;;;8.56
76476;BMP280;65308;50.078;14.854;2023-05-10T01:45:46;98784.34;;;8.53
76476;BMP280;65308;50.078;14.854;2023-05-10T01:48:15;98778.78;;;8.60
76476;BMP280;65308;50.078;14.854;2023-05-10T01:50:45;98787.19;;;8.58
76476;BMP280;65308;50.078;14.854;2023-05-10T01:53:13;98772.25;;;8.61
76476;BMP280;65308;50.078;14.854;2023-05-10T01:55:46;98776.03;;;8.51
76476;BMP280;65308;50.078;14.854;2023-05-10T01:58:21;98775.53;;;8.30
76476;BMP280;65308;50.078;14.854;2023-05-10T02:00:50;98765.53;;;8.09
76476;BMP280;65308;50.078;14.854;2023-05-10T02:03:20;98780.03;;;8.20
76476;BMP280;65308;50.078;14.854;2023-05-10T02:05:49;98772.44;;;8.19
76476;BMP280;65308;50.078;14.854;2023-05-10T02:08:17;98779.94;;;8.24
76476;BMP280;65308;50.078;14.854;2023-05-10T02:10:45;98776.72;;;8.29
76476;BMP280;65308;50.078;14.854;2023-05-10T02:13:14;98774.25;;;8.35
76476;BMP280;65308;50.078;14.854;2023-05-10T02:15:42;98774.88;;;8.39
76476;BMP280;65308;50.078;14.854;2023-05-10T02:18:10;98767.00;;;8.35
76476;BMP280;65308;50.078;14.854;2023-05-10T02:20:39;98769.56;;;8.26
76476;BMP280;65308;50.078;14.854;2023-05-10T02:23:07;98775.19;;;8.28
76476;BMP280;65308;50.078;14.854;2023-05-10T02:25:35;98767.34;;;8.24
76476;BMP280;65308;50.078;14.854;2023-05-10T02:28:04;98764.19;;;8.17
76476;BMP280;65308;50.078;14.854;2023-05-10T02:30:32;98775.34;;;8.12
76476;BMP280;65308;50.078;14.854;2023-05-10T02:33:00;98764.19;;;8.17
76476;BMP280;65308;50.078;14.854;2023-05-10T02:35:28;98757.97;;;8.20
76476;BMP280;65308;50.078;14.854;2023-05-10T02:37:58;98769.09;;;8.06
76476;BMP280;65308;50.078;14.854;2023-05-10T02:40:26;98768.19;;;8.09
76476;BMP280;65308;50.078;14.854;2023-05-10T02:42:55;98772.59;;;8.03
76476;BMP280;65308;50.078;14.854;2023-05-10T02:45:25;98758.94;;;8.00
76476;BMP280;65308;50.078;14.854;2023-05-10T02:47:54;98756.28;;;8.00
76476;BMP280;65308;50.078;14.854;2023-05-10T02:50:22;98754.56;;;8.07
76476;BMP280;65308;50.078;14.854;2023-05-10T02:52:51;98761.19;;;8.02
76476;BMP280;65308;50.078;14.854;2023-05-10T02:55:22;98756.72;;;7.99
76476;BMP280;65308;50.078;14.854;2023-05-10T02:57:52;98770.34;;;8.01
76476;BMP280;65308;50.078;14.854;2023-05-10T03:00:21;98765.13;;;7.97
76476;BMP280;65308;50.078;14.854;2023-05-10T03:02:48;98771.75;;;7.93
76476;BMP280;65308;50.078;14.854;2023-05-10T03:05:15;98765.81;;;7.89
76476;BMP280;65308;50.078;14.854;2023-05-10T03:07:42;98771.53;;;7.87
76476;BMP280;65308;50.078;14.854;2023-05-10T03:10:09;98773.47;;;7.87
76476;BMP280;65308;50.078;14.854;2023-05-10T03:12:54;98776.75;;;7.91
76476;BMP280;65308;50.078;14.854;2023-05-10T03:15:31;98777.91;;;7.90
76476;BMP280;65308;50.078;14.854;2023-05-10T03:18:07;98778.47;;;7.85
76476;BMP280;65308;50.078;14.854;2023-05-10T03:20:36;98774.00;;;7.94
76476;BMP280;65308;50.078;14.854;2023-05-10T03:23:11;98770.16;;;7.95
76476;BMP280;65308;50.078;14.854;2023-05-10T03:25:41;98775.03;;;7.71
76476;BMP280;65308;50.078;14.854;2023-05-10T03:28:11;98768.78;;;7.65
76476;BMP280;65308;50.078;14.854;2023-05-10T03:30:41;98768.66;;;7.82
76476;BMP280;65308;50.078;14.854;2023-05-10T03:33:08;98762.88;;;8.09
76476;BMP280;65308;50.078;14.854;2023-05-10T03:35:45;98766.41;;;8.06
76476;BMP280;65308;50.078;14.854;2023-05-10T03:38:17;98767.78;;;8.58
76476;BMP280;65308;50.078;14.854;2023-05-10T03:40:44;98760.69;;;8.99
76476;BMP280;65308;50.078;14.854;2023-05-10T03:43:13;98767.78;;;9.55
76476;BMP280;65308;50.078;14.854;2023-05-10T03:45:40;98769.56;;;9.98
76476;BMP280;65308;50.078;14.854;2023-05-10T03:48:06;98768.84;;;10.53
76476;BMP280;65308;50.078;14.854;2023-05-10T03:50:33;98769.22;;;11.16
76476;BMP280;65308;50.078;14.854;2023-05-10T03:53:00;98768.66;;;11.78
76476;BMP280;65308;50.078;14.854;2023-05-10T03:55:27;98768.09;;;12.37
76476;BMP280;65308;50.078;14.854;2023-05-10T03:57:54;98761.66;;;12.58
76476;BMP280;65308;50.078;14.854;2023-05-10T04:00:22;98761.00;;;12.93
76476;BMP280;65308;50.078;14.854;2023-05-10T04:02:51;98763.19;;;13.59
76476;BMP280;65308;50.078;14.854;2023-05-10T04:05:18;98766.81;;;14.17
76476;BMP280;65308;50.078;14.854;2023-05-10T04:07:45;98762.69;;;14.48
76476;BMP280;65308;50.078;14.854;2023-05-10T04:10:12;98767.41;;;14.85
76476;BMP280;65308;50.078;14.854;2023-05-10T04:12:39;98777.28;;;15.85
76476;BMP280;65308;50.078;14.854;2023-05-10T04:15:09;98774.72;;;16.74
76476;BMP280;65308;50.078;14.854;2023-05-10T04:17:37;98776.91;;;17.73
76476;BMP280;65308;50.078;14.854;2023-05-10T04:20:05;98771.88;;;18.66
76476;BMP280;65308;50.078;14.854;2023-05-10T04:22:32;98776.72;;;19.22
76476;BMP280;65308;50.078;14.854;2023-05-10T04:24:58;98776.91;;;19.67
76476;BMP280;65308;50.078;14.854;2023-05-10T04:27:25;98782.53;;;20.20
76476;BMP280;65308;50.078;14.854;2023-05-10T04:29:52;98781.06;;;20.64
76476;BMP280;65308;50.078;14.854;2023-05-10T04:32:19;98789.84;;;21.37
76476;BMP280;65308;50.078;14.854;2023-05-10T04:34:47;98793.00;;;22.17
76476;BMP280;65308;50.078;14.854;2023-05-10T04:37:14;98794.47;;;23.03
76476;BMP280;65308;50.078;14.854;2023-05-10T04:39:40;98801.44;;;23.86
76476;BMP280;65308;50.078;14.854;2023-05-10T04:42:07;98806.13;;;24.70
76476;BMP280;65308;50.078;14.854;2023-05-10T04:44:34;98800.34;;;24.28
76476;BMP280;65308;50.078;14.854;2023-05-10T04:47:01;98810.91;;;25.10
76476;BMP280;65308;50.078;14.854;2023-05-10T04:49:28;98810.78;;;26.15
76476;BMP280;65308;50.078;14.854;2023-05-10T04:51:56;98816.00;;;27.07
76476;BMP280;65308;50.078;14.854;2023-05-10T04:54:23;98810.00;;;28.01
76476;BMP280;65308;50.078;14.854;2023-05-10T04:56:50;98808.25;;;28.73
76476;BMP280;65308;50.078;14.854;2023-05-10T04:59:16;98814.94;;;29.52
76476;BMP280;65308;50.078;14.854;2023-05-10T05:01:43;98819.06;;;30.15
76476;BMP280;65308;50.078;14.854;2023-05-10T05:04:10;98813.13;;;30.30
76476;BMP280;65308;50.078;14.854;2023-05-10T05:06:37;98807.09;;;30.22
76476;BMP280;65308;50.078;14.854;2023-05-10T05:09:05;98813.38;;;30.67
76476;BMP280;65308;50.078;14.854;2023-05-10T05:11:31;98815.16;;;30.74
76476;BMP280;65308;50.078;14.854;2023-05-10T05:13:59;98812.00;;;31.25
76476;BMP280;65308;50.078;14.854;2023-05-10T05:16:25;98816.41;;;31.65
76476;BMP280;65308;50.078;14.854;2023-05-10T05:18:52;98806.84;;;30.18
76476;BMP280;65308;50.078;14.854;2023-05-10T05:21:20;98806.41;;;30.33
76476;BMP280;65308;50.078;14.854;2023-05-10T05:23:47;98808.03;;;29.72
76476;BMP280;65308;50.078;14.854;2023-05-10T05:26:15;98798.31;;;29.71
76476;BMP280;65308;50.078;14.854;2023-05-10T05:28:42;98797.25;;;30.19
76476;BMP280;65308;50.078;14.854;2023-05-10T05:31:09;98801.19;;;30.37
76476;BMP280;65308;50.078;14.854;2023-05-10T05:33:36;98794.88;;;30.25
76476;BMP280;65308;50.078;14.854;2023-05-10T05:36:05;98798.53;;;30.39
76476;BMP280;65308;50.078;14.854;2023-05-10T05:38:32;98795.38;;;30.33
76476;BMP280;65308;50.078;14.854;2023-05-10T05:40:59;98793.47;;;30.36
76476;BMP280;65308;50.078;14.854;2023-05-10T05:43:27;98787.09;;;30.33
76476;BMP280;65308;50.078;14.854;2023-05-10T05:45:54;98796.72;;;29.89
76476;BMP280;65308;50.078;14.854;2023-05-10T05:48:23;98789.81;;;28.86
76476;BMP280;65308;50.078;14.854;2023-05-10T05:50:49;98797.75;;;29.42
76476;BMP280;65308;50.078;14.854;2023-05-10T05:53:19;98792.69;;;29.38
76476;BMP280;65308;50.078;14.854;2023-05-10T05:55:52;98788.63;;;29.39
76476;BMP280;65308;50.078;14.854;2023-05-10T05:58:20;98792.88;;;30.04
76476;BMP280;65308;50.078;14.854;2023-05-10T06:00:48;98807.03;;;29.67
76476;BMP280;65308;50.078;14.854;2023-05-10T06:03:15;98792.31;;;29.22
76476;BMP280;65308;50.078;14.854;2023-05-10T06:05:42;98799.97;;;30.97
76476;BMP280;65308;50.078;14.854;2023-05-10T06:08:09;98800.56;;;31.42
76476;BMP280;65308;50.078;14.854;2023-05-10T06:10:36;98805.63;;;30.99
76476;BMP280;65308;50.078;14.854;2023-05-10T06:13:04;98803.91;;;30.82
76476;BMP280;65308;50.078;14.854;2023-05-10T06:15:32;98800.50;;;31.77
76476;BMP280;65308;50.078;14.854;2023-05-10T06:18:01;98795.44;;;32.75
76476;BMP280;65308;50.078;14.854;2023-05-10T06:20:28;98801.19;;;33.34
76476;BMP280;65308;50.078;14.854;2023-05-10T06:22:56;98799.09;;;33.91
76476;BMP280;65308;50.078;14.854;2023-05-10T06:25:23;98798.13;;;33.28
76476;BMP280;65308;50.078;14.854;2023-05-10T06:27:50;98799.66;;;33.88
76476;BMP280;65308;50.078;14.854;2023-05-10T06:30:22;98797.38;;;33.55
76476;BMP280;65308;50.078;14.854;2023-05-10T06:32:53;98800.94;;;35.11
76476;BMP280;65308;50.078;14.854;2023-05-10T06:35:22;98784.63;;;34.09
76476;BMP280;65308;50.078;14.854;2023-05-10T06:37:49;98795.69;;;34.22
76476;BMP280;65308;50.078;14.854;2023-05-10T06:40:17;98800.84;;;35.78
76476;BMP280;65308;50.078;14.854;2023-05-10T06:42:44;98800.88;;;36.73
76476;BMP280;65308;50.078;14.854;2023-05-10T06:45:12;98797.25;;;37.10
76476;BMP280;65308;50.078;14.854;2023-05-10T06:47:39;98797.72;;;37.46
76476;BMP280;65308;50.078;14.854;2023-05-10T06:50:07;98797.53;;;37.18
76476;BMP280;65308;50.078;14.854;2023-05-10T06:52:36;98800.78;;;38.02
76476;BMP280;65308;50.078;14.854;2023-05-10T06:55:07;98798.38;;;36.81
76476;BMP280;65308;50.078;14.854;2023-05-10T06:57:34;98789.47;;;35.89
76476;BMP280;65308;50.078;14.854;2023-05-10T07:00:01;98791.66;;;36.88
76476;BMP280;65308;50.078;14.854;2023-05-10T07:02:30;98790.78;;;36.83
76476;BMP280;65308;50.078;14.854;2023-05-10T07:04:56;98791.66;;;35.55
76476;BMP280;65308;50.078;14.854;2023-05-10T07:07:23;98800.03;;;37.10
76476;BMP280;65308;50.078;14.854;2023-05-10T07:09:51;98792.63;;;38.34
76476;BMP280;65308;50.078;14.854;2023-05-10T07:12:18;98784.28;;;38.62
76476;BMP280;65308;50.078;14.854;2023-05-10T07:14:45;98782.09;;;38.58
76476;BMP280;65308;50.078;14.854;2023-05-10T07:17:12;98784.06;;;38.28
76476;BMP280;65308;50.078;14.854;2023-05-10T07:19:39;98784.94;;;38.88
76476;BMP280;65308;50.078;14.854;2023-05-10T07:22:06;98790.63;;;39.20
76476;BMP280;65308;50.078;14.854;2023-05-10T07:24:33;98775.69;;;39.73
76476;BMP280;65308;50.078;14.854;2023-05-10T07:27:02;98779.03;;;39.66
76476;BMP280;65308;50.078;14.854;2023-05-10T07:29:29;98783.69;;;39.87
76476;BMP280;65308;50.078;14.854;2023-05-10T07:31:56;98781.94;;;39.70
76476;BMP280;65308;50.078;14.854;2023-05-10T07:34:23;98788.50;;;38.90
76476;BMP280;65308;50.078;14.854;2023-05-10T07:36:57;98792.38;;;39.05
76476;BMP280;65308;50.078;14.854;2023-05-10T07:39:24;98797.50;;;38.87
76476;BMP280;65308;50.078;14.854;2023-05-10T07:41:50;98787.13;;;39.21
76476;BMP280;65308;50.078;14.854;2023-05-10T07:44:18;98795.34;;;39.13
76476;BMP280;65308;50.078;14.854;2023-05-10T07:46:45;98786.16;;;38.81
76476;BMP280;65308;50.078;14.854;2023-05-10T07:49:13;98784.69;;;39.06
76476;BMP280;65308;50.078;14.854;2023-05-10T07:51:41;98782.13;;;39.16
76476;BMP280;65308;50.078;14.854;2023-05-10T07:54:09;98800.16;;;39.71
76476;BMP280;65308;50.078;14.854;2023-05-10T07:56:36;98794.94;;;40.23
76476;BMP280;65308;50.078;14.854;2023-05-10T07:59:03;98797.34;;;40.81
76476;BMP280;65308;50.078;14.854;2023-05-10T08:01:34;98785.63;;;40.94
76476;BMP280;65308;50.078;14.854;2023-05-10T08:04:01;98793.47;;;41.50
76476;BMP280;65308;50.078;14.854;2023-05-10T08:06:28;98801.78;;;40.94
76476;BMP280;65308;50.078;14.854;2023-05-10T08:08:55;98794.91;;;41.03
76476;BMP280;65308;50.078;14.854;2023-05-10T08:11:22;98783.63;;;39.83
76476;BMP280;65308;50.078;14.854;2023-05-10T08:13:50;98803.03;;;40.85
76476;BMP280;65308;50.078;14.854;2023-05-10T08:16:19;98801.66;;;41.34
76476;BMP280;65308;50.078;14.854;2023-05-10T08:18:47;98789.09;;;40.91
76476;BMP280;65308;50.078;14.854;2023-05-10T08:21:16;98790.00;;;41.04
76476;BMP280;65308;50.078;14.854;2023-05-10T08:23:42;98778.75;;;41.04
76476;BMP280;65308;50.078;14.854;2023-05-10T08:26:11;98790.94;;;40.76
76476;BMP280;65308;50.078;14.854;2023-05-10T08:28:38;98787.53;;;40.40
76476;BMP280;65308;50.078;14.854;2023-05-10T08:31:05;98787.38;;;40.32
76476;BMP280;65308;50.078;14.854;2023-05-10T08:33:32;98777.81;;;40.09
76476;BMP280;65308;50.078;14.854;2023-05-10T08:36:01;98789.09;;;40.51
76476;BMP280;65308;50.078;14.854;2023-05-10T08:38:28;98784.88;;;39.78
76476;BMP280;65308;50.078;14.854;2023-05-10T08:40:58;98780.94;;;39.55
76476;BMP280;65308;50.078;14.854;2023-05-10T08:43:27;98781.22;;;39.69
76476;BMP280;65308;50.078;14.854;2023-05-10T08:45:55;98779.06;;;40.00
76476;BMP280;65308;50.078;14.854;2023-05-10T08:48:24;98774.56;;;39.52
76476;BMP280;65308;50.078;14.854;2023-05-10T08:50:53;98776.00;;;39.53
76476;BMP280;65308;50.078;14.854;2023-05-10T08:53:24;98771.28;;;39.98
76476;BMP280;65308;50.078;14.854;2023-05-10T08:55:52;98769.25;;;40.01
76476;BMP280;65308;50.078;14.854;2023-05-10T08:58:19;98775.28;;;39.53
76476;BMP280;65308;50.078;14.854;2023-05-10T09:00:48;98763.44;;;39.56
76476;BMP280;65308;50.078;14.854;2023-05-10T09:03:16;98767.97;;;39.72
76476;BMP280;65308;50.078;14.854;2023-05-10T09:05:43;98762.16;;;39.61
76476;BMP280;65308;50.078;14.854;2023-05-10T09:08:10;98769.31;;;39.07
76476;BMP280;65308;50.078;14.854;2023-05-10T09:10:39;98766.44;;;37.73
76476;BMP280;65308;50.078;14.854;2023-05-10T09:13:10;98761.38;;;37.44
76476;BMP280;65308;50.078;14.854;2023-05-10T09:15:37;98773.91;;;37.21
76476;BMP280;65308;50.078;14.854;2023-05-10T09:18:04;98758.66;;;36.03
76476;BMP280;65308;50.078;14.854;2023-05-10T09:20:31;98754.81;;;35.92
76476;BMP280;65308;50.078;14.854;2023-05-10T09:22:59;98757.13;;;35.27
76476;BMP280;65308;50.078;14.854;2023-05-10T09:25:27;98760.13;;;35.33
76476;BMP280;65308;50.078;14.854;2023-05-10T09:27:55;98753.50;;;34.10
76476;BMP280;65308;50.078;14.854;2023-05-10T09:30:26;98751.09;;;33.02
76476;BMP280;65308;50.078;14.854;2023-05-10T09:32:54;98755.31;;;32.90
76476;BMP280;65308;50.078;14.854;2023-05-10T09:35:22;98767.44;;;33.10
76476;BMP280;65308;50.078;14.854;2023-05-10T09:37:51;98748.97;;;31.83
76476;BMP280;65308;50.078;14.854;2023-05-10T09:40:20;98754.38;;;31.44
76476;BMP280;65308;50.078;14.854;2023-05-10T09:42:55;98741.63;;;31.51
76476;BMP280;65308;50.078;14.854;2023-05-10T09:45:24;98752.25;;;31.19
76476;BMP280;65308;50.078;14.854;2023-05-10T09:47:52;98748.06;;;30.83
76476;BMP280;65308;50.078;14.854;2023-05-10T09:50:19;98748.47;;;30.45
76476;BMP280;65308;50.078;14.854;2023-05-10T09:52:47;98755.94;;;30.42
76476;BMP280;65308;50.078;14.854;2023-05-10T09:55:14;98746.63;;;30.26
76476;BMP280;65308;50.078;14.854;2023-05-10T09:57:42;98749.91;;;30.01
76476;BMP280;65308;50.078;14.854;2023-05-10T10:00:17;98744.66;;;29.62
76476;BMP280;65308;50.078;14.854;2023-05-10T10:02:45;98745.97;;;29.83
76476;BMP280;65308;50.078;14.854;2023-05-10T10:05:13;98759.88;;;29.85
76476;BMP280;65308;50.078;14.854;2023-05-10T10:07:40;98740.34;;;29.81
76476;BMP280;65308;50.078;14.854;2023-05-10T10:10:08;98747.47;;;29.74
76476;BMP280;65308;50.078;14.854;2023-05-10T10:12:38;98742.44;;;29.39
76476;BMP280;65308;50.078;14.854;2023-05-10T10:15:09;98738.63;;;29.23
76476;BMP280;65308;50.078;14.854;2023-05-10T10:17:37;98741.41;;;28.82
76476;BMP280;65308;50.078;14.854;2023-05-10T10:20:05;98744.84;;;27.94
76476;BMP280;65308;50.078;14.854;2023-05-10T10:22:33;98751.16;;;27.77
76476;BMP280;65308;50.078;14.854;2023-05-10T10:24:59;98742.97;;;27.41
76476;BMP280;65308;50.078;14.854;2023-05-10T10:27:32;98749.84;;;26.95
76476;BMP280;65308;50.078;14.854;2023-05-10T10:30:07;98741.13;;;26.62
76476;BMP280;65308;50.078;14.854;2023-05-10T10:35:33;98740.28;;;26.25
76476;BMP280;65308;50.078;14.854;2023-05-10T10:38:00;98741.38;;;26.05
76476;BMP280;65308;50.078;14.854;2023-05-10T10:40:28;98748.03;;;25.77
76476;BMP280;65308;50.078;14.854;2023-05-10T10:42:56;98745.50;;;25.21
76476;BMP280;65308;50.078;14.854;2023-05-10T10:45:24;98740.69;;;25.04
76476;BMP280;65308;50.078;14.854;2023-05-10T10:48:23;98736.72;;;24.83
76476;BMP280;65308;50.078;14.854;2023-05-10T10:50:56;98721.13;;;24.68
76476;BMP280;65308;50.078;14.854;2023-05-10T10:53:26;98724.47;;;24.51
76476;BMP280;65308;50.078;14.854;2023-05-10T10:56:04;98725.97;;;24.37
76476;BMP280;65308;50.078;14.854;2023-05-10T10:58:33;98728.16;;;24.31
76476;BMP280;65308;50.078;14.854;2023-05-10T11:01:11;98736.91;;;24.37
76476;BMP280;65308;50.078;14.854;2023-05-10T11:03:40;98722.69;;;24.23
76476;BMP280;65308;50.078;14.854;2023-05-10T11:06:07;98727.81;;;24.19
76476;BMP280;65308;50.078;14.854;2023-05-10T11:08:41;98723.09;;;24.19
76476;BMP280;65308;50.078;14.854;2023-05-10T11:11:08;98725.66;;;24.10
76476;BMP280;65308;50.078;14.854;2023-05-10T11:13:39;98722.00;;;24.00
76476;BMP280;65308;50.078;14.854;2023-05-10T11:16:14;98721.13;;;23.82
76476;BMP280;65308;50.078;14.854;2023-05-10T11:18:53;98716.34;;;23.90
76476;BMP280;65308;50.078;14.854;2023-05-10T11:21:20;98713.81;;;23.92
76476;BMP280;65308;50.078;14.854;2023-05-10T11:23:49;98717.81;;;23.99
76476;BMP280;65308;50.078;14.854;2023-05-10T11:26:22;98731.84;;;24.10
76476;BMP280;65308;50.078;14.854;2023-05-10T11:28:52;98721.97;;;24.07
76476;BMP280;65308;50.078;14.854;2023-05-10T11:31:19;98732.38;;;23.86
76476;BMP280;65308;50.078;14.854;2023-05-10T11:33:50;98726.38;;;23.87
76476;BMP280;65308;50.078;14.854;2023-05-10T11:36:19;98717.25;;;24.00
76476;BMP280;65308;50.078;14.854;2023-05-10T11:38:49;98725.66;;;24.02
76476;BMP280;65308;50.078;14.854;2023-05-10T11:41:17;98720.72;;;24.01
76476;BMP280;65308;50.078;14.854;2023-05-10T11:43:46;98718.00;;;24.08
76476;BMP280;65308;50.078;14.854;2023-05-10T11:46:14;98710.72;;;24.03
76476;BMP280;65308;50.078;14.854;2023-05-10T11:48:42;98722.16;;;24.25
76476;BMP280;65308;50.078;14.854;2023-05-10T11:51:10;98708.81;;;24.36
76476;BMP280;65308;50.078;14.854;2023-05-10T11:53:38;98719.19;;;24.45
76476;BMP280;65308;50.078;14.854;2023-05-10T11:56:06;98717.94;;;24.39
76476;BMP280;65308;50.078;14.854;2023-05-10T11:58:33;98718.47;;;24.37
76476;BMP280;65308;50.078;14.854;2023-05-10T12:01:01;98726.72;;;24.30
76476;BMP280;65308;50.078;14.854;2023-05-10T12:03:28;98726.34;;;24.26
76476;BMP280;65308;50.078;14.854;2023-05-10T12:05:56;98719.09;;;24.13
76476;BMP280;65308;50.078;14.854;2023-05-10T12:08:28;98724.72;;;24.15
76476;BMP280;65308;50.078;14.854;2023-05-10T12:11:05;98739.66;;;24.21
76476;BMP280;65308;50.078;14.854;2023-05-10T12:13:32;98733.41;;;24.44
76476;BMP280;65308;50.078;14.854;2023-05-10T12:15:58;98736.09;;;24.51
76476;BMP280;65308;50.078;14.854;2023-05-10T12:21:03;98738.66;;;24.65
76476;BMP280;65308;50.078;14.854;2023-05-10T12:23:30;98732.72;;;24.84
76476;BMP280;65308;50.078;14.854;2023-05-10T12:26:02;98743.75;;;24.61
76476;BMP280;65308;50.078;14.854;2023-05-10T12:28:31;98738.09;;;24.59
76476;BMP280;65308;50.078;14.854;2023-05-10T12:30:59;98737.31;;;24.81
76476;BMP280;65308;50.078;14.854;2023-05-10T12:33:49;98729.94;;;24.51
76476;BMP280;65308;50.078;14.854;2023-05-10T12:36:16;98734.28;;;24.54
76476;BMP280;65308;50.078;14.854;2023-05-10T12:38:51;98741.06;;;24.53
76476;BMP280;65308;50.078;14.854;2023-05-10T12:41:18;98746.38;;;24.28
76476;BMP280;65308;50.078;14.854;2023-05-10T12:46:22;98726.75;;;23.84
76476;BMP280;65308;50.078;14.854;2023-05-10T12:51:37;98737.28;;;24.10
76476;BMP280;65308;50.078;14.854;2023-05-10T12:54:04;98737.13;;;24.01
76476;BMP280;65308;50.078;14.854;2023-05-10T12:56:31;98733.69;;;23.92
76476;BMP280;65308;50.078;14.854;2023-05-10T12:58:57;98735.50;;;23.82
76476;BMP280;65308;50.078;14.854;2023-05-10T13:01:25;98736.94;;;23.76
76476;BMP280;65308;50.078;14.854;2023-05-10T13:03:52;98739.66;;;23.76
76476;BMP280;65308;50.078;14.854;2023-05-10T13:06:19;98741.31;;;23.94
76476;BMP280;65308;50.078;14.854;2023-05-10T13:08:45;98742.03;;;24.02
76476;BMP280;65308;50.078;14.854;2023-05-10T13:11:12;98743.31;;;23.86
76476;BMP280;65308;50.078;14.854;2023-05-10T13:13:41;98726.94;;;23.71
76476;BMP280;65308;50.078;14.854;2023-05-10T13:16:08;98722.72;;;23.39
76476;BMP280;65308;50.078;14.854;2023-05-10T13:18:37;98740.53;;;23.40
76476;BMP280;65308;50.078;14.854;2023-05-10T13:21:04;98731.97;;;23.28
76476;BMP280;65308;50.078;14.854;2023-05-10T13:23:33;98744.06;;;22.97
76476;BMP280;65308;50.078;14.854;2023-05-10T13:26:00;98722.63;;;23.08
76476;BMP280;65308;50.078;14.854;2023-05-10T13:28:26;98733.78;;;23.18
76476;BMP280;65308;50.078;14.854;2023-05-10T13:30:54;98736.50;;;23.18
76476;BMP280;65308;50.078;14.854;2023-05-10T13:33:20;98730.19;;;23.61
76476;BMP280;65308;50.078;14.854;2023-05-10T13:35:48;98730.00;;;23.59
76476;BMP280;65308;50.078;14.854;2023-05-10T13:38:15;98734.00;;;23.51
76476;BMP280;65308;50.078;14.854;2023-05-10T13:40:42;98725.81;;;23.58
76476;BMP280;65308;50.078;14.854;2023-05-10T13:43:09;98725.59;;;23.18
76476;BMP280;65308;50.078;14.854;2023-05-10T13:45:50;98716.50;;;23.31
76476;BMP280;65308;50.078;14.854;2023-05-10T13:48:25;98728.09;;;23.08
76476;BMP280;65308;50.078;14.854;2023-05-10T13:50:54;98725.31;;;22.57
76476;BMP280;65308;50.078;14.854;2023-05-10T13:53:27;98723.03;;;22.40
76476;BMP280;65308;50.078;14.854;2023-05-10T13:55:54;98720.66;;;22.16
76476;BMP280;65308;50.078;14.854;2023-05-10T13:58:20;98725.81;;;22.48
76476;BMP280;65308;50.078;14.854;2023-05-10T14:00:47;98727.22;;;22.77
76476;BMP280;65308;50.078;14.854;2023-05-10T14:03:14;98724.66;;;22.72
76476;BMP280;65308;50.078;14.854;2023-05-10T14:05:40;98751.13;;;22.92
76476;BMP280;65308;50.078;14.854;2023-05-10T14:08:09;98729.50;;;22.94
76476;BMP280;65308;50.078;14.854;2023-05-10T14:10:36;98730.72;;;22.78
76476;BMP280;65308;50.078;14.854;2023-05-10T14:13:03;98725.78;;;22.84
76476;BMP280;65308;50.078;14.854;2023-05-10T14:15:29;98726.91;;;22.89
76476;BMP280;65308;50.078;14.854;2023-05-10T14:17:56;98730.44;;;23.04